sensor_id;sensor_type;location;lat;lon;timestamp;pressure;altitude;pressure_sealevel;temperature;humidity
51468;BME280;37545;45.302;-122.946;2022-07-23T00:00:38;101119.06;;;29.78;33.27
51468;BME280;37545;45.302;-122.946;2022-07-23T00:03:07;101128.56;;;29.84;33.04
51468;BME280;37545;45.302;-122.946;2022-07-23T00:05:37;101110.31;;;29.75;31.74
51468;BME280;37545;45.302;-122.946;2022-07-23T00:08:06;101131.19;;;29.85;33.01
51468;BME280;37545;45.302;-122.946;2022-07-23T00:10:35;101114.78;;;29.74;31.49
51468;BME280;37545;45.302;-122.946;2022-07-23T00:13:04;101117.31;;;29.77;31.81
51468;BME280;37545;45.302;-122.946;2022-07-23T00:15:33;101104.56;;;29.63;31.51
51468;BME280;37545;45.302;-122.946;2022-07-23T00:18:05;101111.66;;;29.64;31.88
51468;BME280;37545;45.302;-122.946;2022-07-23T00:20:33;101119.97;;;29.77;32.24
51468;BME280;37545;45.302;-122.946;2022-07-23T00:23:03;101106.75;;;29.76;31.69
51468;BME280;37545;45.302;-122.946;2022-07-23T00:25:32;101088.50;;;29.65;31.68
51468;BME280;37545;45.302;-122.946;2022-07-23T00:28:01;101124.09;;;29.84;32.62
51468;BME280;37545;45.302;-122.946;2022-07-23T00:30:31;101085.09;;;29.61;31.73
51468;BME280;37545;45.302;-122.946;2022-07-23T00:33:01;101115.72;;;29.73;33.90
51468;BME280;37545;45.302;-122.946;2022-07-23T00:35:31;101102.19;;;29.57;33.86
51468;BME280;37545;45.302;-122.946;2022-07-23T00:38:03;101112.66;;;29.62;33.12
51468;BME280;37545;45.302;-122.946;2022-07-23T00:40:32;101083.75;;;29.53;33.14
51468;BME280;37545;45.302;-122.946;2022-07-23T00:43:01;101111.19;;;29.75;33.32
51468;BME280;37545;45.302;-122.946;2022-07-23T00:45:30;101107.31;;;29.62;33.30
51468;BME280;37545;45.302;-122.946;2022-07-23T00:47:59;101086.41;;;29.53;32.44
51468;BME280;37545;45.302;-122.946;2022-07-23T00:50:28;101078.97;;;29.39;33.20
51468;BME280;37545;45.302;-122.946;2022-07-23T00:52:57;101111.16;;;29.55;34.39
51468;BME280;37545;45.302;-122.946;2022-07-23T00:55:27;101106.78;;;29.54;35.27
51468;BME280;37545;45.302;-122.946;2022-07-23T00:57:57;101100.50;;;29.55;34.08
51468;BME280;37545;45.302;-122.946;2022-07-23T01:00:26;101081.44;;;29.43;34.98
51468;BME280;37545;45.302;-122.946;2022-07-23T01:02:55;101095.13;;;29.56;32.66
51468;BME280;37545;45.302;-122.946;2022-07-23T01:05:24;101096.91;;;29.56;32.73
51468;BME280;37545;45.302;-122.946;2022-07-23T01:07:53;101089.28;;;29.48;33.38
51468;BME280;37545;45.302;-122.946;2022-07-23T01:10:22;101113.06;;;29.53;34.03
51468;BME280;37545;45.302;-122.946;2022-07-23T01:13:07;101080.28;;;29.30;34.50
51468;BME280;37545;45.302;-122.946;2022-07-23T01:15:38;101101.00;;;29.44;34.33
51468;BME280;37545;45.302;-122.946;2022-07-23T01:18:07;101080.38;;;29.27;33.78
51468;BME280;37545;45.302;-122.946;2022-07-23T01:20:37;101083.06;;;29.27;34.16
51468;BME280;37545;45.302;-122.946;2022-07-23T01:23:07;101095.38;;;29.30;33.04
51468;BME280;37545;45.302;-122.946;2022-07-23T01:25:36;101084.25;;;29.20;33.62
51468;BME280;37545;45.302;-122.946;2022-07-23T01:28:05;101071.50;;;29.06;34.10
51468;BME280;37545;45.302;-122.946;2022-07-23T01:30:34;101079.47;;;29.08;33.85
51468;BME280;37545;45.302;-122.946;2022-07-23T01:33:03;101070.84;;;29.01;32.75
51468;BME280;37545;45.302;-122.946;2022-07-23T01:35:34;101074.34;;;29.01;34.24
51468;BME280;37545;45.302;-122.946;2022-07-23T01:38:11;101082.22;;;29.04;33.42
51468;BME280;37545;45.302;-122.946;2022-07-23T01:40:42;101058.75;;;28.92;34.05
51468;BME280;37545;45.302;-122.946;2022-07-23T01:43:12;101072.75;;;28.97;33.35
51468;BME280;37545;45.302;-122.946;2022-07-23T01:45:43;101050.34;;;28.81;34.54
51468;BME280;37545;45.302;-122.946;2022-07-23T01:48:11;101067.69;;;28.91;33.07
51468;BME280;37545;45.302;-122.946;2022-07-23T01:50:40;101073.88;;;28.92;32.95
51468;BME280;37545;45.302;-122.946;2022-07-23T01:53:11;101064.53;;;28.81;33.97
51468;BME280;37545;45.302;-122.946;2022-07-23T01:55:42;101080.47;;;28.83;34.17
51468;BME280;37545;45.302;-122.946;2022-07-23T01:58:14;101082.25;;;28.82;34.62
51468;BME280;37545;45.302;-122.946;2022-07-23T02:00:45;101057.41;;;28.61;34.40
51468;BME280;37545;45.302;-122.946;2022-07-23T02:03:14;101079.38;;;28.67;35.36
51468;BME280;37545;45.302;-122.946;2022-07-23T02:05:43;101090.06;;;28.65;35.55
51468;BME280;37545;45.302;-122.946;2022-07-23T02:08:13;101075.59;;;28.50;36.64
51468;BME280;37545;45.302;-122.946;2022-07-23T02:10:51;101087.97;;;28.51;36.57
51468;BME280;37545;45.302;-122.946;2022-07-23T02:13:29;101094.78;;;28.35;36.71
51468;BME280;37545;45.302;-122.946;2022-07-23T02:16:00;101068.91;;;28.16;37.31
51468;BME280;37545;45.302;-122.946;2022-07-23T02:18:29;101086.59;;;28.17;38.54
51468;BME280;37545;45.302;-122.946;2022-07-23T02:20:58;101074.81;;;28.01;38.16
51468;BME280;37545;45.302;-122.946;2022-07-23T02:23:31;101078.75;;;27.91;38.11
51468;BME280;37545;45.302;-122.946;2022-07-23T02:26:00;101097.50;;;27.88;39.29
51468;BME280;37545;45.302;-122.946;2022-07-23T02:28:29;101094.25;;;27.78;38.78
51468;BME280;37545;45.302;-122.946;2022-07-23T02:30:57;101052.97;;;27.44;38.93
51468;BME280;37545;45.302;-122.946;2022-07-23T02:33:29;101053.44;;;27.30;38.90
51468;BME280;37545;45.302;-122.946;2022-07-23T02:35:58;101079.22;;;27.28;39.29
51468;BME280;37545;45.302;-122.946;2022-07-23T02:38:27;101077.88;;;27.15;39.68
51468;BME280;37545;45.302;-122.946;2022-07-23T02:40:57;101089.78;;;27.03;39.84
51468;BME280;37545;45.302;-122.946;2022-07-23T02:43:28;101098.00;;;26.95;39.77
51468;BME280;37545;45.302;-122.946;2022-07-23T02:45:57;101081.81;;;26.77;39.82
51468;BME280;37545;45.302;-122.946;2022-07-23T02:48:27;101075.34;;;26.57;39.93
51468;BME280;37545;45.302;-122.946;2022-07-23T02:50:56;101098.22;;;26.61;40.97
51468;BME280;37545;45.302;-122.946;2022-07-23T02:53:26;101078.75;;;26.32;40.32
51468;BME280;37545;45.302;-122.946;2022-07-23T02:55:57;101086.84;;;26.28;40.86
51468;BME280;37545;45.302;-122.946;2022-07-23T02:58:26;101089.78;;;26.19;41.19
51468;BME280;37545;45.302;-122.946;2022-07-23T03:00:55;101074.50;;;25.97;42.03
51468;BME280;37545;45.302;-122.946;2022-07-23T03:03:25;101080.97;;;25.88;41.72
51468;BME280;37545;45.302;-122.946;2022-07-23T03:05:54;101095.44;;;25.75;41.84
51468;BME280;37545;45.302;-122.946;2022-07-23T03:08:22;101092.28;;;25.61;42.11
51468;BME280;37545;45.302;-122.946;2022-07-23T03:10:51;101112.97;;;25.48;42.33
51468;BME280;37545;45.302;-122.946;2022-07-23T03:13:46;101110.84;;;25.28;42.54
51468;BME280;37545;45.302;-122.946;2022-07-23T03:16:22;101083.25;;;25.01;43.05
51468;BME280;37545;45.302;-122.946;2022-07-23T03:18:51;101114.13;;;25.02;42.94
51468;BME280;37545;45.302;-122.946;2022-07-23T03:21:22;101111.88;;;24.85;43.14
51468;BME280;37545;45.302;-122.946;2022-07-23T03:23:54;101121.72;;;24.78;43.65
51468;BME280;37545;45.302;-122.946;2022-07-23T03:26:23;101115.00;;;24.65;43.99
51468;BME280;37545;45.302;-122.946;2022-07-23T03:28:54;101123.97;;;24.58;44.32
51468;BME280;37545;45.302;-122.946;2022-07-23T03:31:23;101123.38;;;24.43;44.81
51468;BME280;37545;45.302;-122.946;2022-07-23T03:33:52;101125.34;;;24.35;45.22
51468;BME280;37545;45.302;-122.946;2022-07-23T03:36:24;101133.53;;;24.23;44.60
51468;BME280;37545;45.302;-122.946;2022-07-23T03:38:53;101112.06;;;23.96;45.07
51468;BME280;37545;45.302;-122.946;2022-07-23T03:41:22;101114.97;;;23.82;45.56
51468;BME280;37545;45.302;-122.946;2022-07-23T03:43:56;101134.34;;;23.81;46.51
51468;BME280;37545;45.302;-122.946;2022-07-23T03:46:24;101121.56;;;23.57;46.37
51468;BME280;37545;45.302;-122.946;2022-07-23T03:48:55;101155.91;;;23.58;46.90
51468;BME280;37545;45.302;-122.946;2022-07-23T03:51:25;101157.06;;;23.44;46.80
51468;BME280;37545;45.302;-122.946;2022-07-23T03:53:54;101136.25;;;23.25;47.57
51468;BME280;37545;45.302;-122.946;2022-07-23T03:56:23;101160.81;;;23.29;47.94
51468;BME280;37545;45.302;-122.946;2022-07-23T03:58:52;101157.47;;;23.17;48.16
51468;BME280;37545;45.302;-122.946;2022-07-23T04:01:27;101160.31;;;23.05;47.96
51468;BME280;37545;45.302;-122.946;2022-07-23T04:03:56;101164.00;;;22.93;48.98
51468;BME280;37545;45.302;-122.946;2022-07-23T04:06:28;101156.38;;;22.73;48.60
51468;BME280;37545;45.302;-122.946;2022-07-23T04:08:59;101174.78;;;22.76;49.64
51468;BME280;37545;45.302;-122.946;2022-07-23T04:11:31;101157.44;;;22.60;50.50
51468;BME280;37545;45.302;-122.946;2022-07-23T04:14:00;101161.84;;;22.58;49.79
51468;BME280;37545;45.302;-122.946;2022-07-23T04:16:30;101147.19;;;22.38;50.42
51468;BME280;37545;45.302;-122.946;2022-07-23T04:18:59;101150.75;;;22.34;50.62
51468;BME280;37545;45.302;-122.946;2022-07-23T04:21:31;101130.72;;;22.15;50.18
51468;BME280;37545;45.302;-122.946;2022-07-23T04:23:59;101174.53;;;22.31;50.12
51468;BME280;37545;45.302;-122.946;2022-07-23T04:26:28;101165.81;;;22.22;50.21
51468;BME280;37545;45.302;-122.946;2022-07-23T04:28:57;101163.31;;;22.09;50.05
51468;BME280;37545;45.302;-122.946;2022-07-23T04:31:26;101183.44;;;22.15;50.57
51468;BME280;37545;45.302;-122.946;2022-07-23T04:33:56;101179.13;;;22.08;50.57
51468;BME280;37545;45.302;-122.946;2022-07-23T04:36:28;101188.00;;;22.01;50.82
51468;BME280;37545;45.302;-122.946;2022-07-23T04:38:57;101169.78;;;21.81;50.78
51468;BME280;37545;45.302;-122.946;2022-07-23T04:41:26;101183.78;;;21.84;50.75
51468;BME280;37545;45.302;-122.946;2022-07-23T04:43:54;101195.25;;;21.80;51.12
51468;BME280;37545;45.302;-122.946;2022-07-23T04:46:23;101156.91;;;21.51;50.92
51468;BME280;37545;45.302;-122.946;2022-07-23T04:48:52;101180.56;;;21.53;50.29
51468;BME280;37545;45.302;-122.946;2022-07-23T04:51:23;101199.00;;;21.54;50.82
51468;BME280;37545;45.302;-122.946;2022-07-23T04:53:51;101213.09;;;21.47;51.07
51468;BME280;37545;45.302;-122.946;2022-07-23T04:56:20;101200.88;;;21.42;51.14
51468;BME280;37545;45.302;-122.946;2022-07-23T04:58:49;101184.34;;;21.18;51.35
51468;BME280;37545;45.302;-122.946;2022-07-23T05:01:18;101181.78;;;21.10;51.68
51468;BME280;37545;45.302;-122.946;2022-07-23T05:03:47;101180.13;;;20.94;51.51
51468;BME280;37545;45.302;-122.946;2022-07-23T05:06:16;101207.31;;;20.96;52.13
51468;BME280;37545;45.302;-122.946;2022-07-23T05:08:46;101221.31;;;20.95;51.87
51468;BME280;37545;45.302;-122.946;2022-07-23T05:11:15;101213.50;;;20.86;51.69
51468;BME280;37545;45.302;-122.946;2022-07-23T05:13:44;101195.19;;;20.67;52.15
51468;BME280;37545;45.302;-122.946;2022-07-23T05:16:13;101230.22;;;20.73;52.29
51468;BME280;37545;45.302;-122.946;2022-07-23T05:18:42;101209.22;;;20.54;52.71
51468;BME280;37545;45.302;-122.946;2022-07-23T05:21:11;101205.78;;;20.46;52.83
51468;BME280;37545;45.302;-122.946;2022-07-23T05:23:40;101226.78;;;20.49;52.74
51468;BME280;37545;45.302;-122.946;2022-07-23T05:26:13;101219.84;;;20.34;53.11
51468;BME280;37545;45.302;-122.946;2022-07-23T05:28:42;101227.69;;;20.36;53.23
51468;BME280;37545;45.302;-122.946;2022-07-23T05:31:14;101225.13;;;20.29;53.36
51468;BME280;37545;45.302;-122.946;2022-07-23T05:33:50;101209.38;;;20.14;53.60
51468;BME280;37545;45.302;-122.946;2022-07-23T05:36:18;101225.13;;;20.17;54.14
51468;BME280;37545;45.302;-122.946;2022-07-23T05:38:48;101246.16;;;20.14;54.29
51468;BME280;37545;45.302;-122.946;2022-07-23T05:41:18;101236.56;;;20.07;53.79
51468;BME280;37545;45.302;-122.946;2022-07-23T05:43:47;101215.56;;;19.92;53.87
51468;BME280;37545;45.302;-122.946;2022-07-23T05:46:19;101215.59;;;19.84;54.32
51468;BME280;37545;45.302;-122.946;2022-07-23T05:48:59;101225.19;;;19.90;55.23
51468;BME280;37545;45.302;-122.946;2022-07-23T05:51:31;101234.84;;;19.84;54.62
51468;BME280;37545;45.302;-122.946;2022-07-23T05:54:08;101216.44;;;19.61;54.83
51468;BME280;37545;45.302;-122.946;2022-07-23T05:56:43;101229.56;;;19.61;55.67
51468;BME280;37545;45.302;-122.946;2022-07-23T05:59:22;101230.44;;;19.57;55.82
51468;BME280;37545;45.302;-122.946;2022-07-23T06:04:45;101248.81;;;19.53;55.83
51468;BME280;37545;45.302;-122.946;2022-07-23T06:07:43;101242.66;;;19.44;55.75
51468;BME280;37545;45.302;-122.946;2022-07-23T06:10:14;101217.31;;;19.22;55.83
51468;BME280;37545;45.302;-122.946;2022-07-23T06:12:48;101234.78;;;19.23;55.54
51468;BME280;37545;45.302;-122.946;2022-07-23T06:15:19;101238.28;;;19.16;56.29
51468;BME280;37545;45.302;-122.946;2022-07-23T06:17:56;101234.78;;;19.14;55.98
51468;BME280;37545;45.302;-122.946;2022-07-23T06:20:34;101253.13;;;19.17;56.71
51468;BME280;37545;45.302;-122.946;2022-07-23T06:23:03;101245.25;;;19.04;56.52
51468;BME280;37545;45.302;-122.946;2022-07-23T06:25:42;101242.59;;;19.00;56.08
51468;BME280;37545;45.302;-122.946;2022-07-23T06:28:35;101261.88;;;19.03;56.82
51468;BME280;37545;45.302;-122.946;2022-07-23T06:31:10;101241.69;;;18.89;56.81
51468;BME280;37545;45.302;-122.946;2022-07-23T06:33:41;101264.44;;;18.94;56.85
51468;BME280;37545;45.302;-122.946;2022-07-23T06:36:30;101239.88;;;18.74;56.99
51468;BME280;37545;45.302;-122.946;2022-07-23T06:39:02;101256.53;;;18.82;56.93
51468;BME280;37545;45.302;-122.946;2022-07-23T06:41:33;101236.34;;;18.69;56.97
51468;BME280;37545;45.302;-122.946;2022-07-23T06:44:06;101231.09;;;18.62;57.65
51468;BME280;37545;45.302;-122.946;2022-07-23T06:46:38;101269.63;;;18.79;57.43
51468;BME280;37545;45.302;-122.946;2022-07-23T06:49:16;101226.69;;;18.57;57.46
51468;BME280;37545;45.302;-122.946;2022-07-23T06:51:45;101234.56;;;18.61;56.88
51468;BME280;37545;45.302;-122.946;2022-07-23T06:54:14;101243.31;;;18.63;57.49
51468;BME280;37545;45.302;-122.946;2022-07-23T06:56:52;101252.03;;;18.59;56.95
51468;BME280;37545;45.302;-122.946;2022-07-23T06:59:32;101243.28;;;18.53;57.52
51468;BME280;37545;45.302;-122.946;2022-07-23T07:02:04;101263.41;;;18.60;57.52
51468;BME280;37545;45.302;-122.946;2022-07-23T07:04:34;101269.50;;;18.57;57.24
51468;BME280;37545;45.302;-122.946;2022-07-23T07:07:26;101268.59;;;18.49;57.93
51468;BME280;37545;45.302;-122.946;2022-07-23T07:10:05;101263.28;;;18.38;57.27
51468;BME280;37545;45.302;-122.946;2022-07-23T07:12:41;101278.16;;;18.41;58.62
51468;BME280;37545;45.302;-122.946;2022-07-23T07:15:18;101274.63;;;18.36;58.31
51468;BME280;37545;45.302;-122.946;2022-07-23T07:18:02;101270.19;;;18.24;58.23
51468;BME280;37545;45.302;-122.946;2022-07-23T07:20:37;101278.91;;;18.21;58.64
51468;BME280;37545;45.302;-122.946;2022-07-23T07:23:26;101267.47;;;18.09;58.87
51468;BME280;37545;45.302;-122.946;2022-07-23T07:25:57;101267.44;;;18.04;59.14
51468;BME280;37545;45.302;-122.946;2022-07-23T07:28:26;101269.97;;;17.90;59.15
51468;BME280;37545;45.302;-122.946;2022-07-23T07:31:04;101274.34;;;17.90;59.86
51468;BME280;37545;45.302;-122.946;2022-07-23T07:33:51;101264.63;;;17.78;59.71
51468;BME280;37545;45.302;-122.946;2022-07-23T07:36:23;101254.06;;;17.69;59.55
51468;BME280;37545;45.302;-122.946;2022-07-23T07:38:52;101276.81;;;17.76;59.66
51468;BME280;37545;45.302;-122.946;2022-07-23T07:41:33;101289.00;;;17.74;59.85
51468;BME280;37545;45.302;-122.946;2022-07-23T07:44:02;101270.59;;;17.62;60.46
51468;BME280;37545;45.302;-122.946;2022-07-23T07:46:39;101276.69;;;17.64;60.74
51468;BME280;37545;45.302;-122.946;2022-07-23T07:49:24;101272.28;;;17.58;60.96
51468;BME280;37545;45.302;-122.946;2022-07-23T07:52:06;101277.50;;;17.56;60.29
51468;BME280;37545;45.302;-122.946;2022-07-23T07:54:37;101284.47;;;17.53;61.71
51468;BME280;37545;45.302;-122.946;2022-07-23T07:57:06;101278.31;;;17.49;61.09
51468;BME280;37545;45.302;-122.946;2022-07-23T07:59:37;101282.66;;;17.49;61.29
51468;BME280;37545;45.302;-122.946;2022-07-23T08:02:22;101288.75;;;17.46;61.82
51468;BME280;37545;45.302;-122.946;2022-07-23T08:04:51;101284.34;;;17.42;61.43
51468;BME280;37545;45.302;-122.946;2022-07-23T08:07:31;101286.94;;;17.39;61.95
51468;BME280;37545;45.302;-122.946;2022-07-23T08:10:04;101273.75;;;17.28;61.93
51468;BME280;37545;45.302;-122.946;2022-07-23T08:12:51;101296.53;;;17.38;63.10
51468;BME280;37545;45.302;-122.946;2022-07-23T08:15:26;101292.94;;;17.30;62.65
51468;BME280;37545;45.302;-122.946;2022-07-23T08:18:23;101274.53;;;17.20;63.11
51468;BME280;37545;45.302;-122.946;2022-07-23T08:21:00;101299.91;;;17.28;63.45
51468;BME280;37545;45.302;-122.946;2022-07-23T08:23:34;101292.88;;;17.24;63.19
51468;BME280;37545;45.302;-122.946;2022-07-23T08:26:03;101294.56;;;17.19;63.30
51468;BME280;37545;45.302;-122.946;2022-07-23T08:28:33;101301.53;;;17.17;62.87
51468;BME280;37545;45.302;-122.946;2022-07-23T08:31:05;101280.47;;;17.05;62.76
51468;BME280;37545;45.302;-122.946;2022-07-23T08:33:49;101297.97;;;17.09;62.73
51468;BME280;37545;45.302;-122.946;2022-07-23T08:36:26;101298.78;;;17.06;63.22
51468;BME280;37545;45.302;-122.946;2022-07-23T08:39:06;101285.59;;;16.95;63.10
51468;BME280;37545;45.302;-122.946;2022-07-23T08:41:40;101300.44;;;16.98;64.01
51468;BME280;37545;45.302;-122.946;2022-07-23T08:44:20;101305.66;;;16.95;63.91
51468;BME280;37545;45.302;-122.946;2022-07-23T08:46:54;101295.97;;;16.89;63.84
51468;BME280;37545;45.302;-122.946;2022-07-23T08:49:41;101295.00;;;16.80;64.06
51468;BME280;37545;45.302;-122.946;2022-07-23T08:52:14;101287.97;;;16.77;63.77
51468;BME280;37545;45.302;-122.946;2022-07-23T08:54:47;101303.72;;;16.83;64.29
51468;BME280;37545;45.302;-122.946;2022-07-23T08:57:51;101288.75;;;16.70;64.38
51468;BME280;37545;45.302;-122.946;2022-07-23T09:00:22;101296.47;;;16.62;64.40
51468;BME280;37545;45.302;-122.946;2022-07-23T09:02:53;101307.84;;;16.66;64.50
51468;BME280;37545;45.302;-122.946;2022-07-23T09:05:30;101302.56;;;16.63;64.08
51468;BME280;37545;45.302;-122.946;2022-07-23T09:08:10;101290.22;;;16.49;64.21
51468;BME280;37545;45.302;-122.946;2022-07-23T09:10:52;101312.94;;;16.57;65.69
51468;BME280;37545;45.302;-122.946;2022-07-23T09:13:35;101305.84;;;16.48;65.26
51468;BME280;37545;45.302;-122.946;2022-07-23T09:16:07;101309.22;;;16.42;65.60
51468;BME280;37545;45.302;-122.946;2022-07-23T09:18:40;101321.50;;;16.46;65.57
51468;BME280;37545;45.302;-122.946;2022-07-23T09:21:20;101305.66;;;16.34;66.04
51468;BME280;37545;45.302;-122.946;2022-07-23T09:24:15;101317.06;;;16.41;65.94
51468;BME280;37545;45.302;-122.946;2022-07-23T09:26:47;101323.13;;;16.38;66.32
51468;BME280;37545;45.302;-122.946;2022-07-23T09:29:23;101319.56;;;16.33;67.21
51468;BME280;37545;45.302;-122.946;2022-07-23T09:32:16;101305.56;;;16.26;66.88
51468;BME280;37545;45.302;-122.946;2022-07-23T09:34:53;101312.50;;;16.27;66.80
51468;BME280;37545;45.302;-122.946;2022-07-23T09:37:35;101320.31;;;16.24;66.89
51468;BME280;37545;45.302;-122.946;2022-07-23T09:40:13;101315.84;;;16.19;66.29
51468;BME280;37545;45.302;-122.946;2022-07-23T09:42:57;101302.63;;;16.08;67.84
51468;BME280;37545;45.302;-122.946;2022-07-23T09:45:28;101317.38;;;16.04;68.19
51468;BME280;37545;45.302;-122.946;2022-07-23T09:48:14;101318.22;;;16.02;68.00
51468;BME280;37545;45.302;-122.946;2022-07-23T09:50:51;101320.84;;;16.03;67.90
51468;BME280;37545;45.302;-122.946;2022-07-23T09:53:34;101298.84;;;15.87;68.05
51468;BME280;37545;45.302;-122.946;2022-07-23T09:56:03;101329.56;;;16.04;67.87
51468;BME280;37545;45.302;-122.946;2022-07-23T09:58:45;101329.53;;;16.02;68.35
51468;BME280;37545;45.302;-122.946;2022-07-23T10:01:19;101325.09;;;15.97;68.12
51468;BME280;37545;45.302;-122.946;2022-07-23T10:03:51;101317.09;;;15.86;68.51
51468;BME280;37545;45.302;-122.946;2022-07-23T10:06:31;101320.50;;;15.82;68.95
51468;BME280;37545;45.302;-122.946;2022-07-23T10:09:12;101334.47;;;15.87;68.91
51468;BME280;37545;45.302;-122.946;2022-07-23T10:11:48;101341.41;;;15.85;69.15
51468;BME280;37545;45.302;-122.946;2022-07-23T10:14:23;101334.41;;;15.81;69.20
51468;BME280;37545;45.302;-122.946;2022-07-23T10:16:55;101342.16;;;15.76;68.76
51468;BME280;37545;45.302;-122.946;2022-07-23T10:19:26;101319.22;;;15.61;68.26
51468;BME280;37545;45.302;-122.946;2022-07-23T10:22:00;101325.22;;;15.57;69.46
51468;BME280;37545;45.302;-122.946;2022-07-23T10:24:46;101344.41;;;15.59;70.44
51468;BME280;37545;45.302;-122.946;2022-07-23T10:27:47;101339.09;;;15.53;70.17
51468;BME280;37545;45.302;-122.946;2022-07-23T10:30:34;101310.06;;;15.35;69.51
51468;BME280;37545;45.302;-122.946;2022-07-23T10:33:41;101321.28;;;15.31;70.93
51468;BME280;37545;45.302;-122.946;2022-07-23T10:36:23;101319.50;;;15.28;70.27
51468;BME280;37545;45.302;-122.946;2022-07-23T10:39:05;101306.25;;;15.17;71.14
51468;BME280;37545;45.302;-122.946;2022-07-23T10:41:37;101316.63;;;15.14;71.49
51468;BME280;37545;45.302;-122.946;2022-07-23T10:44:13;101327.00;;;15.13;72.71
51468;BME280;37545;45.302;-122.946;2022-07-23T10:47:00;101326.06;;;15.09;73.00
51468;BME280;37545;45.302;-122.946;2022-07-23T10:49:44;101312.75;;;14.95;73.07
51468;BME280;37545;45.302;-122.946;2022-07-23T10:52:21;101320.66;;;14.98;73.01
51468;BME280;37545;45.302;-122.946;2022-07-23T10:54:51;101319.63;;;14.92;72.96
51468;BME280;37545;45.302;-122.946;2022-07-23T10:57:29;101331.06;;;14.98;73.09
51468;BME280;37545;45.302;-122.946;2022-07-23T11:00:29;101340.69;;;15.02;73.50
51468;BME280;37545;45.302;-122.946;2022-07-23T11:02:59;101337.09;;;14.96;73.82
51468;BME280;37545;45.302;-122.946;2022-07-23T11:05:40;101338.00;;;14.98;73.81
51468;BME280;37545;45.302;-122.946;2022-07-23T11:08:21;101345.03;;;15.02;73.81
51468;BME280;37545;45.302;-122.946;2022-07-23T11:11:19;101352.09;;;15.07;73.67
51468;BME280;37545;45.302;-122.946;2022-07-23T11:13:55;101354.72;;;15.09;73.75
51468;BME280;37545;45.302;-122.946;2022-07-23T11:16:38;101350.31;;;15.05;74.00
51468;BME280;37545;45.302;-122.946;2022-07-23T11:19:17;101333.72;;;15.01;73.75
51468;BME280;37545;45.302;-122.946;2022-07-23T11:22:09;101338.00;;;14.98;73.53
51468;BME280;37545;45.302;-122.946;2022-07-23T11:25:03;101359.97;;;15.11;73.24
51468;BME280;37545;45.302;-122.946;2022-07-23T11:27:45;101363.47;;;15.11;73.05
51468;BME280;37545;45.302;-122.946;2022-07-23T11:30:43;101343.25;;;14.99;73.32
51468;BME280;37545;45.302;-122.946;2022-07-23T11:33:20;101366.06;;;15.11;73.54
51468;BME280;37545;45.302;-122.946;2022-07-23T11:36:04;101355.53;;;15.06;73.74
51468;BME280;37545;45.302;-122.946;2022-07-23T11:38:33;101346.66;;;14.97;73.47
51468;BME280;37545;45.302;-122.946;2022-07-23T11:41:09;101346.63;;;14.95;72.81
51468;BME280;37545;45.302;-122.946;2022-07-23T11:43:45;101344.91;;;14.96;72.93
51468;BME280;37545;45.302;-122.946;2022-07-23T11:46:30;101365.16;;;15.09;73.27
51468;BME280;37545;45.302;-122.946;2022-07-23T11:49:17;101342.31;;;14.97;73.64
51468;BME280;37545;45.302;-122.946;2022-07-23T11:51:46;101346.66;;;14.97;73.05
51468;BME280;37545;45.302;-122.946;2022-07-23T11:54:25;101319.47;;;14.84;73.20
51468;BME280;37545;45.302;-122.946;2022-07-23T11:56:56;101343.19;;;14.98;73.80
51468;BME280;37545;45.302;-122.946;2022-07-23T11:59:32;101359.84;;;15.03;73.52
51468;BME280;37545;45.302;-122.946;2022-07-23T12:02:08;101330.78;;;14.84;73.95
51468;BME280;37545;45.302;-122.946;2022-07-23T12:04:53;101341.22;;;14.84;73.87
51468;BME280;37545;45.302;-122.946;2022-07-23T12:07:31;101369.25;;;14.98;74.41
51468;BME280;37545;45.302;-122.946;2022-07-23T12:10:13;101351.69;;;14.87;73.88
51468;BME280;37545;45.302;-122.946;2022-07-23T12:12:49;101362.09;;;14.87;74.28
51468;BME280;37545;45.302;-122.946;2022-07-23T12:15:30;101377.78;;;14.91;74.71
51468;BME280;37545;45.302;-122.946;2022-07-23T12:18:02;101364.56;;;14.80;73.86
51468;BME280;37545;45.302;-122.946;2022-07-23T12:20:44;101346.03;;;14.66;75.05
51468;BME280;37545;45.302;-122.946;2022-07-23T12:23:15;101365.22;;;14.71;75.02
51468;BME280;37545;45.302;-122.946;2022-07-23T12:25:50;101377.47;;;14.75;75.18
51468;BME280;37545;45.302;-122.946;2022-07-23T12:28:30;101368.53;;;14.64;75.17
51468;BME280;37545;45.302;-122.946;2022-07-23T12:31:03;101367.56;;;14.60;74.90
51468;BME280;37545;45.302;-122.946;2022-07-23T12:33:51;101386.78;;;14.65;75.29
51468;BME280;37545;45.302;-122.946;2022-07-23T12:36:39;101362.09;;;14.50;75.29
51468;BME280;37545;45.302;-122.946;2022-07-23T12:39:11;101393.66;;;14.62;75.44
51468;BME280;37545;45.302;-122.946;2022-07-23T12:41:52;101365.53;;;14.49;75.56
51468;BME280;37545;45.302;-122.946;2022-07-23T12:44:25;101379.47;;;14.51;75.70
51468;BME280;37545;45.302;-122.946;2022-07-23T12:46:58;101352.16;;;14.32;75.59
51468;BME280;37545;45.302;-122.946;2022-07-23T12:49:36;101373.34;;;14.49;75.53
51468;BME280;37545;45.302;-122.946;2022-07-23T12:52:25;101381.13;;;14.47;76.12
51468;BME280;37545;45.302;-122.946;2022-07-23T12:55:03;101373.19;;;14.41;76.71
51468;BME280;37545;45.302;-122.946;2022-07-23T12:57:49;101377.50;;;14.40;76.54
51468;BME280;37545;45.302;-122.946;2022-07-23T13:00:59;101366.03;;;14.34;76.27